Time;durP1;ratioP1;P1;durP2;ratioP2;P2;SDS_P1;SDS_P2;PMS_P1;PMS_P2;Temp;Humidity;BMP_temperature;BMP_pressure;BME280_temperature;BME280_humidity;BME280_pressure;Samples;Min_cycle;Max_cycle;Signal;HPM_P1;HPM_P2
2021/11/18 00:01:26;;;;;;;5.75;5.20;;;8.70;99.90;;;;;;5005242;28;20254;-75
2021/11/18 00:47:57;;;;;;;5.50;5.00;;;8.40;99.90;;;;;;5969169;22;20227;-76
2021/11/18 00:50:27;;;;;;;5.50;5.00;;;8.40;99.90;;;;;;5009894;28;20339;-78
2021/11/18 04:55:27;;;;;;;5.95;5.35;;;7.50;99.90;;;;;;5659715;22;20225;-75
2021/11/18 04:57:55;;;;;;;6.32;5.82;;;7.40;99.90;;;;;;5045403;28;20660;-76
2021/11/18 05:00:26;;;;;;;6.10;5.60;;;7.40;99.90;;;;;;5042304;28;20234;-77
2021/11/18 05:24:53;;;;;;;5.80;5.30;;;7.40;99.90;;;;;;5505968;22;20237;-91
2021/11/18 05:27:24;;;;;;;6.53;5.85;;;7.40;99.90;;;;;;5013984;28;20239;-92
2021/11/18 05:29:52;;;;;;;6.45;5.85;;;7.40;99.90;;;;;;4954419;28;20769;-92
2021/11/18 05:32:19;;;;;;;5.97;5.50;;;7.30;99.90;;;;;;5024481;28;20247;-92
2021/11/18 05:34:47;;;;;;;6.45;5.93;;;7.20;99.90;;;;;;5015577;28;20230;-91
2021/11/18 05:37:14;;;;;;;6.07;5.47;;;7.10;99.90;;;;;;4988358;28;20239;-91
2021/11/18 05:39:42;;;;;;;6.82;6.22;;;7.10;99.90;;;;;;5007166;28;20230;-92
2021/11/18 05:42:18;;;;;;;6.30;5.72;;;7.10;99.90;;;;;;4974281;28;20223;-91
2021/11/18 05:44:48;;;;;;;6.40;5.82;;;7.00;99.90;;;;;;5016285;28;20231;-91
2021/11/18 05:47:15;;;;;;;6.30;5.80;;;6.90;99.90;;;;;;5036616;28;20729;-91
2021/11/18 05:49:43;;;;;;;7.50;6.80;;;7.00;99.90;;;;;;5023385;28;20280;-90
2021/11/18 05:52:11;;;;;;;7.22;6.63;;;7.00;99.90;;;;;;4939187;28;20230;-92
2021/11/18 05:54:39;;;;;;;7.07;6.47;;;7.10;99.90;;;;;;5027492;28;20235;-92
2021/11/18 05:57:06;;;;;;;6.93;6.32;;;7.20;99.90;;;;;;5020675;28;20229;-91
2021/11/18 05:59:37;;;;;;;6.65;6.15;;;7.20;99.90;;;;;;5007189;28;20241;-92
2021/11/18 06:02:04;;;;;;;6.68;6.07;;;7.20;99.90;;;;;;5018679;28;20301;-91
2021/11/18 06:04:32;;;;;;;6.18;5.68;;;7.20;99.90;;;;;;5013933;28;20231;-89
2021/11/18 06:07:00;;;;;;;5.85;5.38;;;7.20;99.90;;;;;;4978125;28;20253;-88
2021/11/18 06:09:27;;;;;;;6.28;5.68;;;7.20;99.90;;;;;;5012271;28;20354;-89
2021/11/18 06:11:54;;;;;;;6.18;5.63;;;7.20;99.90;;;;;;5004045;28;20228;-86
2021/11/18 06:14:22;;;;;;;6.05;5.45;;;7.20;99.90;;;;;;4998168;28;20231;-91
2021/11/18 06:16:51;;;;;;;6.38;5.88;;;7.10;99.90;;;;;;5007084;28;20219;-90
2021/11/18 06:19:18;;;;;;;5.93;5.47;;;7.10;99.90;;;;;;5015492;28;20232;-91
2021/11/18 06:21:49;;;;;;;6.20;5.32;;;7.10;99.90;;;;;;5037461;28;20213;-90
2021/11/18 06:24:18;;;;;;;8.43;6.35;;;7.20;99.90;;;;;;4978547;28;20223;-92
2021/11/18 06:26:46;;;;;;;7.22;6.53;;;7.60;99.90;;;;;;5008307;28;20234;-92
2021/11/18 06:29:19;;;;;;;7.65;5.80;;;8.10;99.90;;;;;;4976406;28;20235;-92
2021/11/18 06:31:47;;;;;;;6.18;5.45;;;8.10;99.90;;;;;;4996585;28;20640;-92
2021/11/18 06:34:16;;;;;;;7.25;6.35;;;8.10;99.90;;;;;;4987472;28;20738;-92
2021/11/18 06:36:47;;;;;;;7.40;6.70;;;8.00;99.90;;;;;;4982398;28;20232;-91
2021/11/18 06:39:16;;;;;;;8.57;6.88;;;7.90;99.90;;;;;;4977110;28;20727;-91
2021/11/18 06:41:43;;;;;;;7.68;6.97;;;7.70;99.90;;;;;;4956390;28;20234;-91
2021/11/18 06:44:14;;;;;;;7.43;6.63;;;7.60;99.90;;;;;;4930286;28;20223;-92
2021/11/18 06:46:42;;;;;;;7.47;6.78;;;7.50;99.90;;;;;;4954318;28;20241;-92
2021/11/18 06:49:12;;;;;;;7.18;6.40;;;7.50;99.90;;;;;;4972292;28;20587;-89
2021/11/18 06:51:43;;;;;;;6.75;5.90;;;7.50;99.90;;;;;;4983112;28;20269;-92
2021/11/18 06:54:13;;;;;;;5.70;5.20;;;7.50;99.90;;;;;;5052632;28;20231;-92
2021/11/18 06:56:40;;;;;;;6.25;5.65;;;7.60;99.90;;;;;;5033072;28;20274;-91
2021/11/18 06:59:08;;;;;;;5.43;4.95;;;7.50;99.90;;;;;;5028181;28;20229;-91
2021/11/18 07:01:36;;;;;;;5.45;4.95;;;7.40;99.90;;;;;;5018721;28;20239;-91
2021/11/18 07:04:06;;;;;;;5.65;5.15;;;7.40;99.90;;;;;;5027231;28;20235;-89
2021/11/18 07:06:36;;;;;;;6.03;5.28;;;7.50;99.90;;;;;;5034065;28;20231;-91
2021/11/18 07:09:13;;;;;;;5.85;5.35;;;7.40;99.90;;;;;;5034766;28;20223;-90
2021/11/18 07:11:43;;;;;;;5.80;5.30;;;7.40;99.90;;;;;;5018473;28;20243;-91
2021/11/18 07:14:11;;;;;;;5.30;4.90;;;7.40;99.90;;;;;;5024880;28;20263;-90
2021/11/18 07:16:39;;;;;;;6.40;5.80;;;7.40;99.90;;;;;;5030962;28;20228;-91
2021/11/18 07:19:07;;;;;;;5.63;5.13;;;7.50;99.90;;;;;;5023543;28;20618;-91
2021/11/18 07:24:20;;;;;;;4.97;4.57;;;7.50;99.90;;;;;;5025849;28;20302;-90
2021/11/18 07:26:50;;;;;;;5.10;4.70;;;7.60;99.90;;;;;;5030020;28;20891;-90
2021/11/18 07:29:19;;;;;;;7.35;5.40;;;7.60;99.90;;;;;;5029153;28;21019;-90
2021/11/18 07:37:08;;;;;;;5.60;5.10;;;7.60;99.90;;;;;;5033207;28;20242;-91
2021/11/18 07:40:05;;;;;;;9.13;5.82;;;7.60;99.90;;;;;;5036425;28;20233;-90
2021/11/18 07:42:40;;;;;;;6.05;5.45;;;7.70;99.90;;;;;;5029315;28;20222;-91
2021/11/18 07:45:10;;;;;;;5.35;4.95;;;8.10;99.90;;;;;;5016050;28;20223;-91
2021/11/18 07:47:38;;;;;;;5.72;5.20;;;8.20;99.90;;;;;;5022112;28;20286;-92
2021/11/18 07:50:08;;;;;;;5.53;5.03;;;8.30;99.90;;;;;;5025467;28;20231;-91
2021/11/18 07:52:37;;;;;;;5.53;5.03;;;8.60;99.90;;;;;;5023955;28;20231;-91
2021/11/18 07:55:07;;;;;;;5.30;4.90;;;9.30;99.90;;;;;;5026032;28;20234;-90
2021/11/18 07:57:35;;;;;;;4.60;4.25;;;10.00;99.90;;;;;;5019644;28;20251;-90
2021/11/18 08:00:04;;;;;;;6.25;5.05;;;10.60;99.90;;;;;;5014209;28;20223;-90
2021/11/18 08:02:32;;;;;;;4.45;4.15;;;11.00;99.90;;;;;;5025351;28;20219;-90
2021/11/18 08:04:59;;;;;;;5.10;4.70;;;11.30;99.90;;;;;;5024754;28;20228;-91
2021/11/18 08:07:26;;;;;;;5.10;4.63;;;11.40;99.90;;;;;;5034439;28;20717;-90
2021/11/18 08:09:55;;;;;;;5.32;4.82;;;11.60;99.90;;;;;;5035597;28;20222;-91
2021/11/18 08:12:22;;;;;;;5.25;4.15;;;12.00;99.90;;;;;;5039437;28;20287;-92
2021/11/18 08:14:51;;;;;;;4.45;4.05;;;12.10;99.90;;;;;;5021445;28;20223;-91
2021/11/18 08:17:18;;;;;;;7.22;5.53;;;12.30;99.90;;;;;;5020715;28;20227;-92
2021/11/18 08:19:46;;;;;;;5.32;4.82;;;12.50;99.90;;;;;;5020991;28;20596;-93
2021/11/18 08:22:15;;;;;;;5.63;5.13;;;12.80;99.90;;;;;;5018317;28;20223;-92
2021/11/18 08:24:43;;;;;;;5.72;5.18;;;13.00;99.90;;;;;;5018679;28;20227;-91
2021/11/18 08:27:11;;;;;;;6.35;5.63;;;13.20;99.90;;;;;;5024566;28;20230;-91
2021/11/18 08:29:38;;;;;;;6.68;5.75;;;13.50;99.90;;;;;;5024588;28;20283;-92
2021/11/18 08:32:08;;;;;;;5.75;5.22;;;13.70;99.90;;;;;;5024035;28;20238;-92
2021/11/18 08:34:36;;;;;;;6.13;5.47;;;14.10;99.90;;;;;;5024600;28;20242;-91
2021/11/18 08:37:03;;;;;;;5.55;5.07;;;14.30;99.90;;;;;;5027740;28;20227;-92
2021/11/18 08:39:31;;;;;;;5.20;4.80;;;14.60;99.90;;;;;;5023315;28;20232;-92
2021/11/18 08:42:00;;;;;;;5.20;4.80;;;14.90;99.90;;;;;;5022092;28;20231;-91
2021/11/18 08:44:31;;;;;;;5.78;5.28;;;15.40;99.90;;;;;;5025738;28;20238;-91
2021/11/18 08:56:04;;;;;;;4.40;4.05;;;16.20;99.90;;;;;;5020521;22;20610;-77
2021/11/18 08:58:35;;;;;;;6.22;4.90;;;16.40;99.90;;;;;;5019644;28;20562;-74
2021/11/18 09:01:07;;;;;;;5.10;4.65;;;16.30;99.90;;;;;;5021068;28;20239;-76
2021/11/18 09:03:34;;;;;;;4.65;4.20;;;16.80;99.90;;;;;;5019666;28;20231;-77
2021/11/18 09:06:04;;;;;;;6.32;5.00;;;17.90;99.90;;;;;;5022292;28;20771;-76
2021/11/18 09:08:33;;;;;;;4.78;4.38;;;19.00;99.90;;;;;;5019331;28;20234;-76
2021/11/18 09:11:00;;;;;;;4.82;4.43;;;19.80;99.90;;;;;;5020448;28;20522;-74
2021/11/18 09:13:29;;;;;;;4.50;4.10;;;20.40;99.90;;;;;;5018526;28;20227;-77
2021/11/18 09:15:56;;;;;;;4.97;4.45;;;21.50;99.90;;;;;;5019635;28;20245;-76
2021/11/18 09:18:23;;;;;;;3.85;3.50;;;22.80;99.90;;;;;;5018488;28;20243;-76
2021/11/18 09:20:53;;;;;;;4.10;3.80;;;23.70;99.90;;;;;;5020191;28;20243;-77
2021/11/18 09:23:23;;;;;;;4.25;3.85;;;24.10;99.90;;;;;;5017591;28;20238;-77
2021/11/18 09:25:52;;;;;;;4.38;4.03;;;24.10;99.90;;;;;;5016849;28;20239;-76
2021/11/18 09:28:22;;;;;;;5.70;5.20;;;23.60;99.90;;;;;;5015349;28;20227;-77
2021/11/18 09:30:54;;;;;;;6.85;4.88;;;22.20;99.90;;;;;;5017202;28;20239;-76
2021/11/18 09:33:22;;;;;;;6.32;5.05;;;20.80;99.90;;;;;;5016632;28;20227;-76
2021/11/18 09:35:51;;;;;;;5.15;4.65;;;19.40;99.90;;;;;;5020123;28;20227;-76
2021/11/18 09:38:21;;;;;;;5.10;4.60;;;18.30;99.90;;;;;;5017829;28;20694;-76
2021/11/18 09:40:51;;;;;;;4.85;4.20;;;17.80;99.90;;;;;;5018406;28;20765;-76
2021/11/18 09:43:52;;;;;;;5.18;4.55;;;17.70;99.90;;;;;;5016771;28;20227;-76
2021/11/18 09:46:38;;;;;;;5.57;4.97;;;17.70;99.90;;;;;;5015908;28;20222;-76
2021/11/18 09:49:29;;;;;;;4.93;4.53;;;17.80;99.90;;;;;;5014898;28;20286;-76
2021/11/18 09:52:06;;;;;;;6.72;4.50;;;18.00;99.90;;;;;;5018491;28;20569;-75
2021/11/18 09:54:57;;;;;;;5.00;4.60;;;18.00;99.90;;;;;;5014429;28;20262;-76
2021/11/18 09:57:47;;;;;;;6.63;4.68;;;17.60;99.90;;;;;;5014334;28;20236;-75
2021/11/18 10:00:23;;;;;;;5.47;4.80;;;17.50;99.90;;;;;;5014677;28;20238;-76
2021/11/18 10:03:12;;;;;;;5.20;4.65;;;17.60;99.90;;;;;;5015443;28;20254;-74
2021/11/18 10:05:48;;;;;;;4.97;4.38;;;17.50;99.90;;;;;;5013105;28;20285;-75
2021/11/18 10:08:18;;;;;;;7.68;4.57;;;17.50;99.90;;;;;;5017226;28;20244;-76
2021/11/18 10:10:51;;;;;;;4.00;3.70;;;17.40;99.90;;;;;;5015707;28;20238;-76
2021/11/18 10:13:38;;;;;;;5.63;4.43;;;17.30;99.90;;;;;;5018739;28;20703;-75
2021/11/18 10:16:08;;;;;;;4.85;4.43;;;17.40;99.90;;;;;;5018900;28;20618;-75
2021/11/18 10:18:39;;;;;;;4.80;4.30;;;17.50;99.90;;;;;;5019509;28;20227;-76
2021/11/18 10:21:14;;;;;;;4.88;4.47;;;17.80;99.90;;;;;;5016910;28;20227;-76
2021/11/18 10:23:42;;;;;;;4.82;4.15;;;18.20;99.90;;;;;;5018349;28;20246;-76
2021/11/18 10:26:13;;;;;;;5.10;4.60;;;18.20;99.90;;;;;;5019007;28;20842;-76
2021/11/18 10:28:49;;;;;;;5.50;4.50;;;18.10;99.90;;;;;;5016428;28;20238;-76
2021/11/18 10:31:22;;;;;;;5.28;4.68;;;18.00;99.90;;;;;;5020357;28;20222;-77
2021/11/18 10:34:05;;;;;;;5.40;4.20;;;18.00;99.90;;;;;;5015845;28;20235;-77
2021/11/18 10:37:08;;;;;;;4.28;3.88;;;17.90;99.90;;;;;;5014994;28;20701;-76
2021/11/18 10:39:49;;;;;;;3.70;3.40;;;17.90;99.90;;;;;;4983961;28;20230;-77
2021/11/18 10:42:25;;;;;;;3.95;3.63;;;17.40;99.90;;;;;;5017718;28;20227;-76
2021/11/18 10:44:55;;;;;;;4.30;3.58;;;17.10;99.90;;;;;;5015148;28;20316;-77
2021/11/18 10:47:25;;;;;;;3.85;3.55;;;16.90;99.90;;;;;;5013759;28;20220;-76
2021/11/18 10:49:59;;;;;;;4.10;3.70;;;16.60;99.90;;;;;;5013719;28;20261;-76
2021/11/18 10:52:31;;;;;;;4.90;3.45;;;16.70;99.90;;;;;;5015927;28;20237;-77
2021/11/18 10:55:17;;;;;;;3.40;3.10;;;16.90;99.90;;;;;;5017119;28;20669;-76
2021/11/18 10:58:02;;;;;;;4.47;3.47;;;17.00;99.90;;;;;;5019072;28;20233;-76
2021/11/18 11:00:40;;;;;;;5.35;3.40;;;17.10;99.90;;;;;;5013383;28;20775;-76
2021/11/18 11:03:21;;;;;;;4.07;3.33;;;17.30;99.90;;;;;;5019049;28;20306;-75
2021/11/18 11:06:06;;;;;;;4.55;4.15;;;17.70;99.90;;;;;;5016903;28;20223;-77
2021/11/18 11:08:33;;;;;;;5.13;4.28;;;17.70;99.90;;;;;;5017689;28;20235;-76
2021/11/18 11:11:05;;;;;;;4.57;4.18;;;17.50;99.90;;;;;;5012159;28;20498;-77
2021/11/18 11:13:57;;;;;;;4.57;4.18;;;17.20;99.90;;;;;;5016855;28;20228;-76
2021/11/18 11:16:49;;;;;;;4.28;3.88;;;17.00;99.90;;;;;;5011554;28;20242;-76
2021/11/18 11:19:26;;;;;;;4.70;3.90;;;16.90;99.90;;;;;;5010076;28;20224;-77
2021/11/18 11:22:01;;;;;;;7.88;4.07;;;17.10;99.90;;;;;;5006521;28;20219;-77
2021/11/18 11:24:54;;;;;;;8.20;3.80;;;17.50;99.90;;;;;;5013870;28;20242;-76
2021/11/18 11:28:00;;;;;;;3.90;3.60;;;17.70;99.90;;;;;;5013728;28;20709;-76
2021/11/18 11:30:33;;;;;;;5.28;4.35;;;17.50;99.90;;;;;;5012368;28;20233;-76
2021/11/18 11:33:05;;;;;;;6.15;4.40;;;16.90;99.90;;;;;;5011623;28;20236;-76
2021/11/18 11:35:41;;;;;;;4.30;3.90;;;16.60;99.90;;;;;;5016982;28;20593;-76
2021/11/18 11:38:48;;;;;;;4.20;3.78;;;16.30;99.90;;;;;;5014889;28;20222;-77
2021/11/18 11:42:08;;;;;;;4.72;3.78;;;16.30;99.90;;;;;;5015216;28;20238;-77
2021/11/18 11:44:44;;;;;;;3.63;3.33;;;16.00;99.90;;;;;;5011919;28;20701;-76
2021/11/18 11:47:18;;;;;;;3.65;3.35;;;16.00;99.90;;;;;;5010903;28;20235;-76
2021/11/18 11:49:57;;;;;;;3.45;3.15;;;16.10;99.90;;;;;;5012804;28;20615;-76
2021/11/18 11:52:40;;;;;;;3.63;3.30;;;16.10;99.90;;;;;;5014427;28;20239;-75
2021/11/18 11:55:38;;;;;;;4.43;4.03;;;16.00;99.90;;;;;;5013945;28;20242;-74
2021/11/18 11:58:11;;;;;;;5.30;3.88;;;15.90;99.90;;;;;;5010323;28;20226;-75
2021/11/18 12:00:48;;;;;;;4.03;3.67;;;15.80;99.90;;;;;;5013613;28;20246;-75
2021/11/18 12:03:29;;;;;;;5.55;3.85;;;16.00;99.90;;;;;;5016166;28;20247;-76
2021/11/18 12:06:05;;;;;;;4.63;4.22;;;16.30;99.90;;;;;;5041180;22;20539;-75
2021/11/18 12:08:36;;;;;;;4.80;4.10;;;16.30;99.90;;;;;;5025234;28;20664;-76
2021/11/18 12:11:15;;;;;;;4.80;4.40;;;16.30;99.90;;;;;;5027324;28;20215;-76
2021/11/18 12:13:52;;;;;;;5.38;3.72;;;16.30;99.90;;;;;;5024007;28;20250;-76
2021/11/18 12:16:26;;;;;;;3.60;3.30;;;16.40;99.90;;;;;;5009663;28;20306;-76
2021/11/18 12:19:02;;;;;;;4.38;4.00;;;16.50;99.90;;;;;;5010576;28;20253;-75
2021/11/18 12:21:31;;;;;;;4.68;4.10;;;16.80;99.90;;;;;;5011356;28;20250;-76
2021/11/18 12:24:13;;;;;;;4.97;4.45;;;17.00;99.90;;;;;;5011184;28;20223;-73
2021/11/18 12:26:55;;;;;;;4.78;4.28;;;17.20;99.90;;;;;;5009477;28;20586;-75
2021/11/18 12:29:36;;;;;;;6.68;3.92;;;17.20;99.90;;;;;;5017099;28;20234;-74
2021/11/18 12:32:34;;;;;;;5.05;4.55;;;17.20;99.90;;;;;;5010965;28;20269;-76
2021/11/18 12:35:35;;;;;;;4.25;3.85;;;16.90;99.90;;;;;;5012946;28;20270;-74
2021/11/18 12:38:10;;;;;;;3.97;3.65;;;16.70;99.90;;;;;;5009606;28;20653;-75
2021/11/18 12:40:59;;;;;;;4.97;3.70;;;16.70;99.90;;;;;;5010353;28;20238;-73
2021/11/18 12:43:57;;;;;;;5.00;4.50;;;16.70;99.90;;;;;;5006487;28;20959;-75
2021/11/18 12:46:28;;;;;;;4.32;3.92;;;16.70;99.90;;;;;;5014079;28;20231;-76
2021/11/18 12:49:14;;;;;;;4.28;3.58;;;16.80;99.90;;;;;;5011742;28;20230;-76
2021/11/18 12:52:18;;;;;;;3.90;3.60;;;17.10;99.90;;;;;;5013945;28;20821;-75
2021/11/18 12:55:17;;;;;;;3.67;3.20;;;17.30;99.90;;;;;;5017015;28;20231;-77
2021/11/18 12:57:47;;;;;;;3.53;3.20;;;17.30;99.90;;;;;;5012537;28;20323;-74
2021/11/18 13:00:41;;;;;;;4.78;3.50;;;17.30;99.90;;;;;;5020263;28;20243;-76
2021/11/18 13:03:13;;;;;;;5.60;3.35;;;17.40;99.90;;;;;;5010471;28;20819;-75
2021/11/18 13:05:56;;;;;;;3.63;3.10;;;17.40;99.90;;;;;;5017359;28;20234;-74
2021/11/18 13:08:54;;;;;;;3.85;3.50;;;17.30;99.90;;;;;;5010484;28;20223;-75
2021/11/18 13:11:50;;;;;;;4.60;3.15;;;17.40;99.90;;;;;;5016854;28;20231;-75
2021/11/18 13:14:34;;;;;;;4.35;3.20;;;17.30;99.90;;;;;;4975887;28;20240;-76
2021/11/18 13:17:37;;;;;;;3.13;2.83;;;17.30;99.90;;;;;;5014997;28;20232;-76
2021/11/18 13:20:46;;;;;;;2.97;2.70;;;17.30;99.90;;;;;;5007794;28;20231;-76
2021/11/18 13:23:32;;;;;;;3.40;3.10;;;17.30;99.90;;;;;;5016762;28;20238;-73
2021/11/18 13:26:04;;;;;;;3.22;2.80;;;17.30;99.90;;;;;;5016605;28;20231;-75
2021/11/18 13:28:45;;;;;;;2.78;2.58;;;17.30;99.90;;;;;;4991362;28;20224;-72
2021/11/18 13:31:12;;;;;;;3.58;3.28;;;17.40;99.90;;;;;;5015105;28;20303;-76
2021/11/18 13:33:43;;;;;;;3.05;2.75;;;17.30;99.90;;;;;;5014223;28;20699;-74
2021/11/18 13:36:18;;;;;;;3.80;2.85;;;17.10;99.90;;;;;;5020015;28;20235;-76
2021/11/18 13:38:53;;;;;;;3.80;2.90;;;16.90;99.90;;;;;;5019210;28;20311;-76
2021/11/18 13:41:33;;;;;;;3.17;2.83;;;16.90;99.90;;;;;;5018527;28;20226;-74
2021/11/18 13:44:02;;;;;;;3.20;2.90;;;16.90;99.90;;;;;;5017321;28;20229;-76
2021/11/18 13:46:33;;;;;;;3.00;2.75;;;17.00;99.90;;;;;;5014083;28;21124;-73
2021/11/18 13:49:02;;;;;;;2.97;2.67;;;16.90;99.90;;;;;;5014579;28;20224;-76
2021/11/18 13:51:40;;;;;;;3.97;2.90;;;16.80;99.90;;;;;;5015425;28;20227;-75
2021/11/18 13:54:11;;;;;;;3.25;3.03;;;16.60;99.90;;;;;;5015990;28;20219;-74
2021/11/18 13:56:42;;;;;;;4.82;3.00;;;16.50;99.90;;;;;;5016758;28;20725;-75
2021/11/18 13:59:17;;;;;;;3.40;3.10;;;16.40;99.90;;;;;;5012080;28;20231;-77
2021/11/18 14:01:48;;;;;;;2.97;2.78;;;16.10;99.90;;;;;;5015658;28;20314;-74
2021/11/18 14:04:18;;;;;;;3.38;3.17;;;15.90;99.90;;;;;;5014428;28;20235;-76
2021/11/18 14:06:51;;;;;;;3.38;2.85;;;15.70;99.90;;;;;;5018366;28;20227;-75
2021/11/18 14:09:21;;;;;;;2.70;2.50;;;15.50;99.90;;;;;;5015499;28;20219;-76
2021/11/18 14:11:54;;;;;;;2.80;2.60;;;15.30;99.90;;;;;;5012711;28;20226;-74
2021/11/18 14:14:39;;;;;;;2.80;2.60;;;15.20;99.90;;;;;;5014118;28;20235;-76
2021/11/18 14:17:27;;;;;;;3.65;3.10;;;15.10;99.90;;;;;;5013945;28;20227;-76
2021/11/18 14:20:15;;;;;;;3.55;3.25;;;14.90;99.90;;;;;;5011330;28;20223;-76
2021/11/18 14:22:45;;;;;;;3.55;3.10;;;14.80;99.90;;;;;;5011892;28;22868;-75
2021/11/18 14:25:29;;;;;;;2.75;2.55;;;14.70;99.90;;;;;;5012046;28;20239;-75
2021/11/18 14:27:59;;;;;;;3.22;2.95;;;14.60;99.90;;;;;;5015201;28;20238;-75
2021/11/18 14:30:42;;;;;;;3.30;3.00;;;14.50;99.90;;;;;;5013534;28;20546;-73
2021/11/18 14:33:17;;;;;;;9.63;7.63;;;14.50;99.90;;;;;;5011477;28;20792;-71
2021/11/18 14:35:54;;;;;;;32.85;24.92;;;14.40;99.90;;;;;;5015375;28;20234;-76
2021/11/18 14:38:32;;;;;;;27.55;24.65;;;14.30;99.90;;;;;;5018638;28;20227;-77
2021/11/18 14:41:07;;;;;;;19.23;16.88;;;14.20;99.90;;;;;;5014520;28;20677;-76
2021/11/18 14:43:53;;;;;;;15.32;13.63;;;14.10;99.90;;;;;;5013116;28;20705;-76
2021/11/18 14:46:29;;;;;;;12.88;11.63;;;14.00;99.90;;;;;;5011572;28;20707;-73
2021/11/18 14:49:00;;;;;;;10.50;9.50;;;13.90;99.90;;;;;;5012472;28;20276;-76
2021/11/18 14:51:33;;;;;;;9.38;8.57;;;13.80;99.90;;;;;;5009563;28;20231;-75
2021/11/18 14:54:12;;;;;;;7.20;6.50;;;13.70;99.90;;;;;;5014009;28;20238;-76
2021/11/18 14:56:42;;;;;;;5.68;5.18;;;13.60;99.90;;;;;;5010221;28;20512;-76
2021/11/18 14:59:13;;;;;;;7.90;7.10;;;13.60;99.90;;;;;;5013775;28;20238;-76
2021/11/18 15:01:43;;;;;;;8.63;7.45;;;13.50;99.90;;;;;;5010384;28;20234;-76
2021/11/18 15:04:20;;;;;;;7.78;7.03;;;13.40;99.90;;;;;;5011833;28;20226;-75
2021/11/18 15:06:49;;;;;;;7.00;6.30;;;13.40;99.90;;;;;;5012548;28;20235;-75
2021/11/18 15:09:19;;;;;;;7.30;6.60;;;13.30;99.90;;;;;;5009020;28;20258;-76
2021/11/18 15:11:49;;;;;;;8.52;7.63;;;13.20;99.90;;;;;;5012008;28;20235;-75
2021/11/18 15:14:18;;;;;;;9.20;8.30;;;13.20;99.90;;;;;;5010880;28;20227;-75
2021/11/18 15:16:46;;;;;;;10.35;9.35;;;13.10;99.90;;;;;;5012392;28;20697;-74
2021/11/18 15:19:14;;;;;;;11.50;9.60;;;13.10;99.90;;;;;;5007457;28;20624;-76
2021/11/18 15:21:41;;;;;;;9.15;8.25;;;13.10;99.90;;;;;;5014277;28;20235;-75
2021/11/18 15:24:11;;;;;;;10.88;9.15;;;13.00;99.90;;;;;;5010223;28;20249;-75
2021/11/18 15:26:41;;;;;;;9.32;7.68;;;12.90;99.90;;;;;;5013864;28;20223;-75
2021/11/18 15:29:10;;;;;;;8.60;7.70;;;12.80;99.90;;;;;;5008784;28;20223;-76
2021/11/18 15:31:38;;;;;;;7.70;7.00;;;12.80;99.90;;;;;;5011917;28;20247;-77
2021/11/18 15:34:06;;;;;;;7.38;6.68;;;12.70;99.90;;;;;;5009421;28;20223;-76
2021/11/18 15:36:33;;;;;;;7.47;6.78;;;12.60;99.90;;;;;;5014646;28;20227;-74
2021/11/18 15:39:01;;;;;;;6.10;5.55;;;12.50;99.90;;;;;;5010344;28;20223;-75
2021/11/18 15:41:32;;;;;;;4.93;4.47;;;12.50;99.90;;;;;;5010387;28;20234;-75
2021/11/18 15:44:01;;;;;;;4.45;4.05;;;12.50;99.90;;;;;;5010457;28;21373;-75
2021/11/18 15:46:29;;;;;;;6.65;5.20;;;12.40;99.90;;;;;;5009808;28;20231;-74
2021/11/18 15:48:57;;;;;;;9.07;8.00;;;12.40;99.90;;;;;;5012585;28;20235;-74
2021/11/18 15:51:27;;;;;;;12.73;9.43;;;12.30;99.90;;;;;;5005728;28;20242;-73
2021/11/18 15:53:54;;;;;;;15.63;9.48;;;12.20;99.90;;;;;;5014496;28;20235;-75
2021/11/18 15:56:24;;;;;;;14.45;10.02;;;12.10;99.90;;;;;;5007059;28;20230;-75
2021/11/18 15:58:52;;;;;;;12.18;8.73;;;12.10;99.90;;;;;;5011061;28;20231;-76
2021/11/18 16:01:24;;;;;;;11.13;7.93;;;12.00;99.90;;;;;;5010598;28;20244;-75
2021/11/18 16:03:51;;;;;;;8.75;6.85;;;12.00;99.90;;;;;;5010895;28;20227;-77
2021/11/18 16:06:19;;;;;;;8.05;6.25;;;11.90;99.90;;;;;;5010998;28;20577;-76
2021/11/18 16:08:48;;;;;;;6.10;4.97;;;11.90;99.90;;;;;;5009713;28;20239;-77
2021/11/18 16:11:18;;;;;;;8.23;5.88;;;11.80;99.90;;;;;;5012825;28;20736;-77
2021/11/18 16:13:48;;;;;;;9.68;7.32;;;11.70;99.90;;;;;;5012034;28;20250;-76
2021/11/18 16:16:18;;;;;;;9.68;7.93;;;11.70;99.90;;;;;;5014165;28;20230;-77
2021/11/18 16:18:49;;;;;;;12.48;8.98;;;11.70;99.90;;;;;;5017158;28;20255;-76
2021/11/18 16:21:19;;;;;;;16.80;10.32;;;11.60;99.90;;;;;;5015269;28;20227;-74
2021/11/18 16:23:48;;;;;;;16.48;10.40;;;11.60;99.90;;;;;;5018213;28;20236;-76
2021/11/18 16:26:17;;;;;;;14.10;9.80;;;11.60;99.90;;;;;;5014438;28;20642;-77
2021/11/18 16:28:48;;;;;;;15.13;10.18;;;11.50;99.90;;;;;;5013994;28;20679;-75
2021/11/18 16:31:15;;;;;;;17.27;10.95;;;11.50;99.90;;;;;;5014915;28;20776;-76
2021/11/18 16:33:42;;;;;;;13.85;9.55;;;11.50;99.90;;;;;;5016814;28;21068;-76
2021/11/18 16:36:13;;;;;;;15.75;9.98;;;11.40;99.90;;;;;;5017153;28;20227;-74
2021/11/18 16:38:42;;;;;;;20.95;12.63;;;11.30;99.90;;;;;;5015978;28;20428;-76
2021/11/18 16:41:13;;;;;;;22.92;14.10;;;11.30;99.90;;;;;;5015556;28;20460;-75
2021/11/18 16:43:41;;;;;;;23.08;13.45;;;11.20;99.90;;;;;;5016710;28;20590;-76
2021/11/18 16:46:12;;;;;;;21.85;12.65;;;11.20;99.90;;;;;;5013130;28;20235;-76
2021/11/18 16:48:40;;;;;;;21.55;12.73;;;11.20;99.90;;;;;;5017856;28;20318;-76
2021/11/18 16:51:11;;;;;;;18.70;11.98;;;11.20;99.90;;;;;;5017344;28;20231;-76
2021/11/18 16:53:39;;;;;;;17.90;11.32;;;11.20;99.90;;;;;;5011605;28;20242;-77
2021/11/18 16:56:07;;;;;;;14.52;9.10;;;11.10;99.90;;;;;;5012094;28;20800;-74
2021/11/18 16:58:36;;;;;;;10.63;7.20;;;11.10;99.90;;;;;;5014734;28;20663;-76
2021/11/18 17:01:11;;;;;;;8.40;6.32;;;11.10;99.90;;;;;;5014121;28;20228;-77
2021/11/18 17:03:39;;;;;;;6.50;5.00;;;11.10;99.90;;;;;;5014121;28;20376;-76
2021/11/18 17:06:09;;;;;;;4.97;4.47;;;11.10;99.90;;;;;;5011154;28;20235;-76
2021/11/18 17:08:39;;;;;;;4.75;4.03;;;11.00;99.90;;;;;;5018821;28;20379;-75
2021/11/18 17:11:11;;;;;;;3.95;3.50;;;11.00;99.90;;;;;;5017909;28;20797;-76
2021/11/18 17:13:39;;;;;;;4.22;3.60;;;10.90;99.90;;;;;;5016452;28;20240;-77
2021/11/18 17:16:08;;;;;;;4.32;3.80;;;10.90;99.90;;;;;;5020177;28;20326;-75
2021/11/18 17:18:37;;;;;;;4.13;3.50;;;10.90;99.90;;;;;;5017000;28;20258;-76
2021/11/18 17:21:07;;;;;;;4.03;3.63;;;10.90;99.90;;;;;;5014770;28;20220;-76
2021/11/18 17:23:37;;;;;;;4.65;3.50;;;10.90;99.90;;;;;;5015690;28;20302;-75
2021/11/18 17:26:06;;;;;;;4.38;3.88;;;10.80;99.90;;;;;;5017429;28;20622;-76
2021/11/18 17:28:34;;;;;;;3.83;3.50;;;10.80;99.90;;;;;;5011938;28;20234;-75
2021/11/18 17:31:04;;;;;;;4.13;3.60;;;10.80;99.90;;;;;;5015999;28;20223;-75
2021/11/18 17:33:31;;;;;;;8.02;5.70;;;10.80;99.90;;;;;;5014502;28;20252;-77
2021/11/18 17:36:06;;;;;;;10.70;6.93;;;10.70;99.90;;;;;;5020172;28;20610;-75
2021/11/18 17:38:34;;;;;;;20.35;10.25;;;10.70;99.90;;;;;;5016605;28;20304;-73
2021/11/18 17:41:09;;;;;;;27.13;13.25;;;10.70;99.90;;;;;;5015566;28;20222;-76
2021/11/18 17:43:37;;;;;;;30.73;14.73;;;10.70;99.90;;;;;;5010231;28;20254;-76
2021/11/18 17:46:08;;;;;;;26.52;12.20;;;10.70;99.90;;;;;;5014956;28;20235;-75
2021/11/18 17:48:37;;;;;;;19.08;10.93;;;10.70;99.90;;;;;;5015827;28;20753;-75
2021/11/18 17:51:08;;;;;;;15.93;9.23;;;10.60;99.90;;;;;;5013682;28;20766;-75
2021/11/18 17:53:36;;;;;;;10.95;7.35;;;10.60;99.90;;;;;;5013630;28;20238;-75
2021/11/18 17:56:06;;;;;;;8.05;6.18;;;10.60;99.90;;;;;;5014523;28;20231;-75
2021/11/18 17:58:36;;;;;;;8.75;5.85;;;10.50;99.90;;;;;;5015280;28;20650;-75
2021/11/18 18:01:07;;;;;;;9.27;6.05;;;10.50;99.90;;;;;;5009510;28;20227;-76
2021/11/18 18:03:35;;;;;;;7.07;4.90;;;10.50;99.90;;;;;;5018418;28;20652;-75
2021/11/18 18:06:02;;;;;;;5.13;4.10;;;10.40;99.90;;;;;;5033983;22;20246;-77
2021/11/18 18:08:30;;;;;;;5.22;4.70;;;10.40;99.90;;;;;;5014610;28;20231;-76
2021/11/18 18:10:57;;;;;;;4.80;4.40;;;10.40;99.90;;;;;;5007672;28;20725;-74
2021/11/18 18:13:25;;;;;;;4.95;4.40;;;10.40;99.90;;;;;;5016526;28;20238;-76
2021/11/18 18:15:53;;;;;;;4.88;4.38;;;10.40;99.90;;;;;;5016106;28;20242;-75
2021/11/18 18:18:20;;;;;;;6.28;5.63;;;10.40;99.90;;;;;;5008437;28;20220;-77
2021/11/18 18:20:50;;;;;;;10.38;7.30;;;10.30;99.90;;;;;;5011836;28;20559;-78
2021/11/18 18:23:18;;;;;;;11.38;8.05;;;10.30;99.90;;;;;;5009301;28;20231;-77
2021/11/18 18:25:48;;;;;;;7.97;6.75;;;10.30;99.90;;;;;;5014281;28;20231;-76
2021/11/18 18:28:16;;;;;;;10.35;6.97;;;10.20;99.90;;;;;;5014035;28;20787;-80
2021/11/18 18:30:48;;;;;;;7.07;5.95;;;10.20;99.90;;;;;;5013585;28;20593;-79
2021/11/18 18:33:15;;;;;;;6.40;5.40;;;10.20;99.90;;;;;;5009317;28;20230;-80
2021/11/18 18:35:43;;;;;;;5.78;5.15;;;10.20;99.90;;;;;;5016116;28;20234;-77
2021/11/18 18:38:12;;;;;;;6.15;5.35;;;10.20;99.90;;;;;;5014528;28;20782;-76
2021/11/18 18:40:42;;;;;;;7.40;5.88;;;10.10;99.90;;;;;;5013964;28;20314;-79
2021/11/18 18:43:14;;;;;;;7.88;5.57;;;10.20;99.90;;;;;;5011982;28;20619;-80
2021/11/18 18:45:42;;;;;;;5.72;5.15;;;10.10;99.90;;;;;;5011533;28;20395;-78